createdAt,value
2023-04-06T00:02:37.042Z,4.06
2023-04-06T00:05:40.080Z,4.03
2023-04-06T00:08:43.330Z,4.03
2023-04-06T00:11:49.180Z,4.04
2023-04-06T00:14:53.800Z,4.07
2023-04-06T00:17:57.991Z,4.02
2023-04-06T00:21:01.267Z,4.01
2023-04-06T00:24:05.738Z,3.97
2023-04-06T00:27:08.748Z,3.91
2023-04-06T00:30:14.059Z,3.82
2023-04-06T00:33:17.090Z,3.89
2023-04-06T00:36:20.455Z,3.86
2023-04-06T00:39:24.121Z,3.87
2023-04-06T00:42:27.305Z,3.90
2023-04-06T00:45:31.734Z,3.80
2023-04-06T00:48:35.221Z,3.77
2023-04-06T00:51:38.452Z,3.79
2023-04-06T00:54:41.678Z,3.79
2023-04-06T00:57:45.994Z,3.79
2023-04-06T01:00:51.037Z,3.79
2023-04-06T01:03:56.987Z,3.72
2023-04-06T01:07:00.518Z,3.74
2023-04-06T01:10:11.804Z,3.77
2023-04-06T01:13:15.539Z,3.74
2023-04-06T01:16:27.812Z,3.67
2023-04-06T01:19:56.921Z,3.71
2023-04-06T01:23:07.354Z,3.72
2023-04-06T01:26:12.095Z,3.63
2023-04-06T01:29:15.431Z,3.53
2023-04-06T01:32:20.464Z,3.53
2023-04-06T01:35:28.986Z,3.58
2023-04-06T01:38:47.999Z,3.54
2023-04-06T01:41:54.141Z,3.49
2023-04-06T01:44:58.474Z,3.47
2023-04-06T01:48:01.736Z,3.52
2023-04-06T01:51:06.400Z,3.53
2023-04-06T01:54:14.675Z,3.55
2023-04-06T01:57:29.516Z,3.54
2023-04-06T02:00:41.522Z,3.49
2023-04-06T02:03:45.456Z,3.49
2023-04-06T02:06:55.401Z,3.50
2023-04-06T02:10:02.463Z,3.50
2023-04-06T02:13:12.358Z,3.44
2023-04-06T02:16:17.644Z,3.41
2023-04-06T02:19:23.407Z,3.40
2023-04-06T02:22:26.471Z,3.35
2023-04-06T02:25:31.448Z,3.25
2023-04-06T02:28:34.771Z,3.13
2023-04-06T02:31:38.650Z,3.10
2023-04-06T02:34:42.842Z,3.11
2023-04-06T02:37:46.175Z,3.11
2023-04-06T02:40:50.676Z,3.05
2023-04-06T02:44:01.845Z,3.03
2023-04-06T02:47:14.018Z,2.96
2023-04-06T02:50:22.060Z,2.93
2023-04-06T02:53:32.968Z,2.86
2023-04-06T02:56:37.709Z,2.72
2023-04-06T02:59:41.152Z,2.73
2023-04-06T03:02:51.654Z,2.76
2023-04-06T03:05:57.256Z,2.81
2023-04-06T03:09:04.405Z,2.75
2023-04-06T03:12:11.065Z,2.64
2023-04-06T03:15:36.911Z,2.57
2023-04-06T03:18:49.304Z,2.39
2023-04-06T03:21:52.676Z,2.31
2023-04-06T03:24:57.884Z,2.25
2023-04-06T03:28:02.624Z,2.25
2023-04-06T03:31:07.442Z,2.17
2023-04-06T03:34:21.996Z,2.09
2023-04-06T03:37:25.404Z,2.04
2023-04-06T03:40:32.052Z,1.90
2023-04-06T03:43:37.060Z,1.89
2023-04-06T03:46:40.572Z,1.85
2023-04-06T03:49:44.671Z,1.82
2023-04-06T03:52:49.716Z,1.81
2023-04-06T03:55:53.153Z,1.72
2023-04-06T03:58:59.007Z,1.65
2023-04-06T04:02:02.289Z,1.68
2023-04-06T04:05:07.119Z,1.61
2023-04-06T04:08:10.920Z,1.62
2023-04-06T04:11:13.986Z,1.56
2023-04-06T04:14:18.476Z,1.53
2023-04-06T04:17:22.097Z,1.47
2023-04-06T04:20:25.627Z,1.42
2023-04-06T04:23:28.675Z,1.49
2023-04-06T04:26:31.862Z,1.45
2023-04-06T04:29:37.120Z,1.51
2023-04-06T04:32:44.364Z,1.51
2023-04-06T04:35:47.507Z,1.49
2023-04-06T04:38:54.751Z,1.35
2023-04-06T04:41:58.941Z,1.25
2023-04-06T04:45:03.677Z,1.23
2023-04-06T04:48:13.956Z,1.32
2023-04-06T04:51:43.013Z,1.28
2023-04-06T04:54:49.270Z,1.30
2023-04-06T04:58:00.315Z,1.31
2023-04-06T05:01:19.760Z,1.23
2023-04-06T05:04:24.042Z,1.25
2023-04-06T05:07:29.510Z,1.27
2023-04-06T05:10:35.181Z,1.32
2023-04-06T05:13:39.192Z,1.38
2023-04-06T05:16:49.968Z,1.39
2023-04-06T05:19:53.833Z,1.49
2023-04-06T05:23:00.727Z,1.53
2023-04-06T05:26:04.203Z,1.64
2023-04-06T05:29:07.825Z,1.65
2023-04-06T05:32:14.969Z,1.72
2023-04-06T05:35:19.132Z,1.74
2023-04-06T05:38:26.808Z,1.64
2023-04-06T05:41:32.164Z,1.65
2023-04-06T05:44:39.607Z,1.72
2023-04-06T05:47:50.816Z,1.85
2023-04-06T05:51:01.892Z,1.99
2023-04-06T05:54:14.991Z,2.06
2023-04-06T05:57:19.233Z,2.07
2023-04-06T06:00:23.248Z,2.26
2023-04-06T06:03:38.721Z,2.44
2023-04-06T06:06:43.321Z,2.48
2023-04-06T06:09:52.621Z,2.61
2023-04-06T06:13:01.686Z,2.76
2023-04-06T06:16:06.526Z,2.80
2023-04-06T06:19:14.582Z,2.87
2023-04-06T06:22:17.870Z,2.93
2023-04-06T06:25:23.333Z,3.03
2023-04-06T06:28:27.451Z,3.13
2023-04-06T06:31:30.849Z,3.14
2023-04-06T06:34:35.258Z,3.31
2023-04-06T06:37:40.911Z,3.48
2023-04-06T06:40:48.743Z,3.67
2023-04-06T06:43:52.903Z,3.75
2023-04-06T06:46:56.421Z,3.92
2023-04-06T06:50:01.152Z,4.05
2023-04-06T06:53:04.320Z,4.19
2023-04-06T06:56:08.114Z,4.29
2023-04-06T06:59:12.192Z,4.42
2023-04-06T07:02:15.506Z,4.56
2023-04-06T07:05:28.052Z,4.77
2023-04-06T07:08:32.847Z,4.94
2023-04-06T07:11:35.914Z,5.12
2023-04-06T07:14:39.081Z,5.21
2023-04-06T07:17:42.859Z,5.36
2023-04-06T07:20:47.440Z,5.42
2023-04-06T07:23:51.790Z,5.74
2023-04-06T07:26:54.802Z,6.47
2023-04-06T07:29:57.882Z,6.29
2023-04-06T07:33:02.970Z,5.98
2023-04-06T07:36:08.123Z,6.06
2023-04-06T07:39:11.677Z,6.15
2023-04-06T07:42:14.720Z,6.29
2023-04-06T07:45:18.292Z,6.40
2023-04-06T07:48:22.691Z,6.56
2023-04-06T07:53:52.765Z,6.62
2023-04-06T07:56:04.821Z,6.74
2023-04-06T07:59:31.594Z,6.81
2023-04-06T08:02:53.410Z,7.12
2023-04-06T08:05:56.854Z,7.14
2023-04-06T08:09:01.215Z,7.34
2023-04-06T08:12:04.401Z,7.59
2023-04-06T08:15:08.499Z,7.60
2023-04-06T08:18:12.045Z,7.50
2023-04-06T08:21:15.067Z,7.69
2023-04-06T08:24:19.450Z,7.91
2023-04-06T08:27:22.455Z,8.04
2023-04-06T08:30:25.513Z,8.18
2023-04-06T08:33:28.532Z,8.16
2023-04-06T08:36:31.776Z,8.29
2023-04-06T08:39:36.577Z,8.36
2023-04-06T08:42:46.599Z,8.42
2023-04-06T08:45:49.888Z,8.62
2023-04-06T08:48:53.354Z,8.86
2023-04-06T08:51:58.365Z,8.93
2023-04-06T08:55:03.115Z,8.94
2023-04-06T08:58:09.842Z,9.14
2023-04-06T09:01:16.463Z,8.95
2023-04-06T09:04:20.417Z,9.28
2023-04-06T09:07:24.938Z,9.33
2023-04-06T09:10:30.747Z,9.52
2023-04-06T09:13:33.933Z,9.78
2023-04-06T09:16:43.689Z,10.26
2023-04-06T09:19:51.111Z,9.94
2023-04-06T09:22:54.292Z,10.13
2023-04-06T09:26:10.690Z,9.30
2023-04-06T09:29:25.644Z,9.60
2023-04-06T09:32:28.764Z,10.19
2023-04-06T09:35:34.151Z,10.35
2023-04-06T09:38:39.150Z,10.75
2023-04-06T09:41:44.086Z,10.37
2023-04-06T09:44:48.845Z,10.56
2023-04-06T09:47:55.047Z,10.54
2023-04-06T09:51:06.423Z,10.18
2023-04-06T09:54:11.720Z,9.86
2023-04-06T09:57:27.490Z,9.62
2023-04-06T10:00:34.885Z,9.84
2023-04-06T10:03:48.138Z,10.74
2023-04-06T10:06:53.526Z,11.09
2023-04-06T10:09:57.722Z,11.34
2023-04-06T10:13:02.621Z,11.74
2023-04-06T10:16:07.049Z,11.48
2023-04-06T10:19:18.230Z,11.30
2023-04-06T10:22:27.363Z,10.93
2023-04-06T10:25:30.615Z,10.82
2023-04-06T10:28:37.679Z,10.64
2023-04-06T10:31:45.624Z,10.74
2023-04-06T10:34:48.721Z,11.42
2023-04-06T10:38:02.932Z,12.19
2023-04-06T10:41:07.375Z,12.70
2023-04-06T10:44:22.533Z,12.34
2023-04-06T10:47:25.850Z,12.25
2023-04-06T10:50:31.843Z,12.46
2023-04-06T10:53:36.139Z,12.97
2023-04-06T10:56:40.837Z,12.43
2023-04-06T10:59:46.590Z,11.53
2023-04-06T11:02:50.045Z,12.20
2023-04-06T11:05:53.814Z,12.97
2023-04-06T11:08:58.042Z,13.11
2023-04-06T11:12:02.049Z,13.27
2023-04-06T11:15:08.292Z,13.67
2023-04-06T11:18:12.586Z,13.79
2023-04-06T11:21:15.971Z,12.88
2023-04-06T11:24:21.111Z,13.11
2023-04-06T11:27:24.567Z,13.35
2023-04-06T11:30:29.210Z,13.02
2023-04-06T11:33:38.572Z,13.42
2023-04-06T11:36:46.040Z,14.18
2023-04-06T11:39:51.907Z,13.08
2023-04-06T11:42:55.965Z,12.96
2023-04-06T11:46:06.285Z,13.43
2023-04-06T11:49:09.340Z,12.41
2023-04-06T11:52:24.906Z,12.38
2023-04-06T11:55:28.243Z,12.71
2023-04-06T11:58:32.150Z,13.08
2023-04-06T12:01:39.225Z,13.26
2023-04-06T12:04:42.475Z,13.03
2023-04-06T12:07:45.571Z,12.30
2023-04-06T12:10:48.538Z,13.36
2023-04-06T12:13:51.559Z,13.13
2023-04-06T12:16:55.867Z,12.97
2023-04-06T12:20:05.122Z,13.36
2023-04-06T12:23:09.054Z,14.21
2023-04-06T12:26:13.346Z,14.06
2023-04-06T12:29:16.745Z,13.23
2023-04-06T12:32:21.494Z,12.68
2023-04-06T12:35:24.532Z,12.09
2023-04-06T12:38:27.554Z,12.66
2023-04-06T12:41:33.536Z,13.44
2023-04-06T12:44:36.553Z,13.81
2023-04-06T12:47:41.291Z,13.47
2023-04-06T12:50:44.376Z,12.32
2023-04-06T12:53:47.913Z,12.41
2023-04-06T12:56:51.414Z,12.15
2023-04-06T12:59:54.588Z,11.96
2023-04-06T13:02:59.056Z,12.32
2023-04-06T13:06:03.096Z,12.48
2023-04-06T13:09:06.766Z,13.06
2023-04-06T13:12:10.061Z,13.57
2023-04-06T13:15:13.931Z,12.88
2023-04-06T13:18:18.535Z,13.51
2023-04-06T13:21:22.638Z,14.40
2023-04-06T13:24:25.814Z,14.10
2023-04-06T13:27:29.328Z,14.65
2023-04-06T13:30:32.416Z,13.75
2023-04-06T13:33:37.334Z,13.34
2023-04-06T13:36:42.376Z,12.70
2023-04-06T13:39:45.400Z,13.11
2023-04-06T13:42:48.974Z,12.85
2023-04-06T13:45:52.902Z,13.06
2023-04-06T13:48:57.377Z,13.00
2023-04-06T13:52:00.726Z,13.77
2023-04-06T13:55:04.183Z,13.76
2023-04-06T13:58:07.284Z,14.16
2023-04-06T14:01:11.787Z,13.24
2023-04-06T14:04:16.418Z,13.19
2023-04-06T14:07:19.474Z,12.25
2023-04-06T14:10:24.785Z,12.55
2023-04-06T14:13:28.407Z,13.21
2023-04-06T14:16:32.278Z,12.07
2023-04-06T14:19:37.192Z,12.66
2023-04-06T14:22:40.284Z,12.30
2023-04-06T14:25:43.503Z,12.23
2023-04-06T14:28:47.380Z,12.35
2023-04-06T14:31:50.854Z,12.73
2023-04-06T14:34:55.407Z,12.65
2023-04-06T14:37:59.226Z,13.63
2023-04-06T14:41:02.628Z,13.17
2023-04-06T14:44:06.587Z,13.51
2023-04-06T14:47:09.620Z,13.62
2023-04-06T14:50:14.377Z,13.33
2023-04-06T14:53:17.356Z,12.78
2023-04-06T14:56:24.343Z,13.16
2023-04-06T15:02:35.684Z,13.41
2023-04-06T15:05:40.366Z,12.95
2023-04-06T15:08:43.998Z,12.44
2023-04-06T15:11:47.011Z,11.95
2023-04-06T15:14:50.013Z,13.06
2023-04-06T15:17:53.002Z,13.68
2023-04-06T15:20:57.360Z,13.15
2023-04-06T15:24:00.519Z,12.62
2023-04-06T15:27:05.985Z,12.68
2023-04-06T15:30:10.394Z,12.91
2023-04-06T15:33:13.448Z,12.56
2023-04-06T15:36:29.723Z,13.42
2023-04-06T15:39:34.233Z,13.29
2023-04-06T15:42:37.569Z,13.03
2023-04-06T15:45:41.767Z,11.54
2023-04-06T15:48:45.511Z,11.84
2023-04-06T15:51:50.483Z,11.22
2023-04-06T15:54:54.129Z,11.57
2023-04-06T15:57:57.178Z,11.72
2023-04-06T16:01:00.364Z,11.89
2023-04-06T16:04:03.560Z,11.44
2023-04-06T16:07:08.026Z,11.66
2023-04-06T16:10:11.821Z,11.25
2023-04-06T16:13:14.857Z,10.93
2023-04-06T16:16:17.848Z,10.92
2023-04-06T16:19:21.285Z,10.90
2023-04-06T16:22:25.886Z,11.03
2023-04-06T16:25:28.980Z,11.21
2023-04-06T16:28:33.045Z,11.08
2023-04-06T16:31:36.404Z,10.92
2023-04-06T16:34:40.095Z,10.97
2023-04-06T16:37:46.609Z,11.09
2023-04-06T16:40:49.737Z,10.99
2023-04-06T16:43:53.652Z,10.67
2023-04-06T16:46:56.803Z,10.79
2023-04-06T16:50:05.955Z,10.71
2023-04-06T16:53:10.866Z,10.61
2023-04-06T16:56:14.360Z,10.44
2023-04-06T16:59:17.384Z,10.16
2023-04-06T17:02:20.876Z,10.12
2023-04-06T17:05:26.502Z,10.12
2023-04-06T17:08:31.258Z,10.01
2023-04-06T17:11:46.149Z,9.88
2023-04-06T17:14:50.382Z,9.77
2023-04-06T17:17:54.108Z,9.80
2023-04-06T17:20:57.251Z,9.82
2023-04-06T17:24:02.158Z,9.83
2023-04-06T17:27:05.310Z,9.77
2023-04-06T17:30:12.341Z,9.65
2023-04-06T17:33:17.707Z,9.52
2023-04-06T17:36:22.009Z,9.44
2023-04-06T17:39:26.871Z,9.39
2023-04-06T17:42:29.906Z,9.33
2023-04-06T17:45:33.053Z,9.19
2023-04-06T17:48:36.291Z,9.18
2023-04-06T17:51:39.248Z,9.15
2023-04-06T17:54:43.595Z,9.06
2023-04-06T17:57:46.799Z,8.95
2023-04-06T18:00:49.818Z,8.92
2023-04-06T18:03:53.209Z,8.84
2023-04-06T18:06:56.449Z,8.80
2023-04-06T18:10:01.748Z,8.79
2023-04-06T18:13:05.001Z,8.67
2023-04-06T18:16:08.283Z,8.61
2023-04-06T18:19:11.409Z,8.48
2023-04-06T18:22:14.699Z,8.40
2023-04-06T18:25:19.280Z,8.39
2023-04-06T18:28:22.248Z,8.31
2023-04-06T18:31:25.386Z,8.19
2023-04-06T18:34:28.985Z,8.14
2023-04-06T18:37:31.965Z,8.03
2023-04-06T18:40:38.681Z,7.93
2023-04-06T18:43:42.005Z,7.92
2023-04-06T18:46:46.025Z,7.90
2023-04-06T18:49:50.029Z,7.87
2023-04-06T18:52:53.172Z,7.78
2023-04-06T18:55:58.560Z,7.74
2023-04-06T18:59:01.548Z,7.66
2023-04-06T19:02:04.635Z,7.60
2023-04-06T19:05:08.723Z,7.53
2023-04-06T19:08:13.065Z,7.46
2023-04-06T19:11:18.642Z,7.45
2023-04-06T19:14:21.814Z,7.37
2023-04-06T19:17:25.088Z,7.30
2023-04-06T19:20:28.282Z,7.27
2023-04-06T19:23:31.578Z,7.20
2023-04-06T19:26:35.903Z,7.19
2023-04-06T19:29:39.224Z,7.09
2023-04-06T19:32:42.262Z,7.07
2023-04-06T19:35:45.314Z,6.96
2023-04-06T19:38:48.384Z,6.94
2023-04-06T19:41:53.336Z,6.85
2023-04-06T19:44:57.443Z,6.84
2023-04-06T19:48:01.525Z,6.83
2023-04-06T19:51:04.565Z,6.74
2023-04-06T19:54:07.804Z,6.66
2023-04-06T19:57:12.163Z,6.63
2023-04-06T20:00:16.340Z,6.63
2023-04-06T20:03:19.999Z,6.55
2023-04-06T20:06:23.328Z,6.50
2023-04-06T20:09:26.576Z,6.43
2023-04-06T20:12:30.959Z,6.37
2023-04-06T20:15:34.007Z,6.29
2023-04-06T20:18:37.066Z,6.22
2023-04-06T20:21:41.009Z,6.10
2023-04-06T20:24:44.012Z,6.07
2023-04-06T20:27:48.553Z,6.03
2023-04-06T20:30:53.016Z,6.03
2023-04-06T20:34:12.350Z,5.82
2023-04-06T20:37:15.666Z,5.84
2023-04-06T20:40:20.861Z,5.67
2023-04-06T20:43:28.215Z,5.54
2023-04-06T20:46:31.423Z,5.57
2023-04-06T20:49:34.558Z,5.56
2023-04-06T20:52:38.059Z,5.52
2023-04-06T20:55:41.745Z,5.45
2023-04-06T20:58:46.304Z,5.34
2023-04-06T21:01:49.857Z,5.32
2023-04-06T21:04:52.934Z,5.14
2023-04-06T21:07:56.624Z,5.17
2023-04-06T21:10:59.735Z,5.17
2023-04-06T21:14:04.116Z,5.08
2023-04-06T21:17:07.705Z,5.18
2023-04-06T21:20:12.544Z,5.14
2023-04-06T21:23:16.178Z,5.14
2023-04-06T21:26:19.765Z,5.09
2023-04-06T21:29:24.054Z,4.82
2023-04-06T21:32:27.667Z,4.70
2023-04-06T21:35:31.244Z,4.75
2023-04-06T21:38:35.096Z,4.72
2023-04-06T21:41:40.306Z,4.78
2023-04-06T21:44:44.623Z,4.80
2023-04-06T21:47:47.648Z,4.86
2023-04-06T21:50:50.770Z,4.86
2023-04-06T21:53:56.282Z,4.81
2023-04-06T21:56:59.854Z,4.78
2023-04-06T22:00:09.685Z,4.74
2023-04-06T22:03:18.226Z,4.74
2023-04-06T22:06:22.826Z,4.74
2023-04-06T22:09:25.877Z,4.63
2023-04-06T22:12:29.005Z,4.53
2023-04-06T22:15:34.114Z,4.42
2023-04-06T22:18:39.148Z,4.49
2023-04-06T22:21:42.622Z,4.37
2023-04-06T22:24:45.797Z,4.38
2023-04-06T22:27:49.288Z,4.18
2023-04-06T22:30:53.670Z,4.12
2023-04-06T22:33:57.116Z,4.11
2023-04-06T22:37:00.149Z,3.99
2023-04-06T22:40:03.410Z,3.98
2023-04-06T22:43:09.493Z,3.91
2023-04-06T22:46:13.776Z,3.89
2023-04-06T22:49:16.862Z,3.81
2023-04-06T22:52:20.024Z,3.81
2023-04-06T22:55:23.373Z,3.77
2023-04-06T22:58:26.527Z,3.72
2023-04-06T23:01:31.100Z,3.73
2023-04-06T23:04:34.453Z,3.70
2023-04-06T23:07:37.522Z,3.62
2023-04-06T23:10:42.010Z,3.58
2023-04-06T23:13:45.762Z,3.61
2023-04-06T23:16:50.245Z,3.56
2023-04-06T23:19:53.302Z,3.57
2023-04-06T23:22:56.321Z,3.49
2023-04-06T23:25:59.359Z,3.50
2023-04-06T23:29:02.523Z,3.44
2023-04-06T23:32:07.235Z,3.42
2023-04-06T23:35:11.280Z,3.36
2023-04-06T23:38:14.293Z,3.33
2023-04-06T23:41:17.294Z,3.31
2023-04-06T23:44:20.900Z,3.29
2023-04-06T23:47:25.396Z,3.21
2023-04-06T23:50:28.849Z,3.13
2023-04-06T23:53:34.509Z,3.05
2023-04-06T23:56:38.315Z,3.02
2023-04-06T23:59:41.398Z,3.02
